sensor_id;sensor_type;location;lat;lon;timestamp;P1;durP1;ratioP1;P2;durP2;ratioP2
5823;SDS011;2938;52.254;12.988;2023-04-01T00:01:57;6.18;;;2.25;;
5823;SDS011;2938;52.254;12.988;2023-04-01T00:04:23;3.75;;;1.77;;
5823;SDS011;2938;52.254;12.988;2023-04-01T00:06:49;4.25;;;1.60;;
5823;SDS011;2938;52.254;12.988;2023-04-01T00:09:14;3.50;;;1.67;;
5823;SDS011;2938;52.254;12.988;2023-04-01T00:11:40;5.93;;;2.28;;
5823;SDS011;2938;52.254;12.988;2023-04-01T00:14:06;7.70;;;1.85;;
5823;SDS011;2938;52.254;12.988;2023-04-01T00:16:31;4.20;;;1.98;;
5823;SDS011;2938;52.254;12.988;2023-04-01T00:18:57;2.83;;;1.80;;
5823;SDS011;2938;52.254;12.988;2023-04-01T00:21:22;2.38;;;1.67;;
5823;SDS011;2938;52.254;12.988;2023-04-01T00:23:51;3.65;;;1.65;;
5823;SDS011;2938;52.254;12.988;2023-04-01T00:26:16;8.32;;;2.13;;
5823;SDS011;2938;52.254;12.988;2023-04-01T00:28:44;6.32;;;1.90;;
5823;SDS011;2938;52.254;12.988;2023-04-01T00:31:09;7.50;;;1.88;;
5823;SDS011;2938;52.254;12.988;2023-04-01T00:33:35;5.43;;;2.13;;
5823;SDS011;2938;52.254;12.988;2023-04-01T00:36:11;4.05;;;1.70;;
5823;SDS011;2938;52.254;12.988;2023-04-01T00:38:41;8.82;;;2.10;;
5823;SDS011;2938;52.254;12.988;2023-04-01T00:41:07;3.97;;;2.03;;
5823;SDS011;2938;52.254;12.988;2023-04-01T00:43:33;3.53;;;1.85;;
5823;SDS011;2938;52.254;12.988;2023-04-01T00:45:59;2.22;;;1.55;;
5823;SDS011;2938;52.254;12.988;2023-04-01T00:48:26;4.72;;;1.70;;
5823;SDS011;2938;52.254;12.988;2023-04-01T00:50:55;4.60;;;1.60;;
5823;SDS011;2938;52.254;12.988;2023-04-01T00:53:32;4.28;;;2.47;;
5823;SDS011;2938;52.254;12.988;2023-04-01T00:56:00;3.45;;;1.83;;
5823;SDS011;2938;52.254;12.988;2023-04-01T00:58:29;5.95;;;1.90;;
5823;SDS011;2938;52.254;12.988;2023-04-01T01:00:56;2.45;;;1.42;;
5823;SDS011;2938;52.254;12.988;2023-04-01T01:03:22;1.90;;;1.45;;
5823;SDS011;2938;52.254;12.988;2023-04-01T01:14:22;4.53;;;1.70;;
5823;SDS011;2938;52.254;12.988;2023-04-01T01:17:44;8.52;;;1.80;;
5823;SDS011;2938;52.254;12.988;2023-04-01T01:31:22;6.30;;;1.83;;
5823;SDS011;2938;52.254;12.988;2023-04-01T01:36:26;9.25;;;2.35;;
5823;SDS011;2938;52.254;12.988;2023-04-01T01:38:53;8.10;;;2.17;;
5823;SDS011;2938;52.254;12.988;2023-04-01T01:41:20;3.08;;;1.67;;
5823;SDS011;2938;52.254;12.988;2023-04-01T01:43:47;5.22;;;1.80;;
5823;SDS011;2938;52.254;12.988;2023-04-01T01:46:15;5.18;;;2.17;;
5823;SDS011;2938;52.254;12.988;2023-04-01T01:48:45;8.50;;;3.50;;
5823;SDS011;2938;52.254;12.988;2023-04-01T01:51:11;6.22;;;1.75;;
5823;SDS011;2938;52.254;12.988;2023-04-01T01:53:36;5.45;;;2.25;;
5823;SDS011;2938;52.254;12.988;2023-04-01T01:56:02;7.40;;;2.53;;
5823;SDS011;2938;52.254;12.988;2023-04-01T01:58:28;3.50;;;2.28;;
5823;SDS011;2938;52.254;12.988;2023-04-01T02:01:01;5.43;;;2.10;;
5823;SDS011;2938;52.254;12.988;2023-04-01T02:03:30;8.35;;;2.13;;
5823;SDS011;2938;52.254;12.988;2023-04-01T02:05:59;6.80;;;2.10;;
5823;SDS011;2938;52.254;12.988;2023-04-01T02:08:39;5.03;;;2.90;;
5823;SDS011;2938;52.254;12.988;2023-04-01T02:11:08;3.20;;;2.38;;
5823;SDS011;2938;52.254;12.988;2023-04-01T02:13:47;7.07;;;1.65;;
5823;SDS011;2938;52.254;12.988;2023-04-01T02:16:27;5.35;;;2.05;;
5823;SDS011;2938;52.254;12.988;2023-04-01T02:18:59;8.63;;;2.50;;
5823;SDS011;2938;52.254;12.988;2023-04-01T02:21:28;3.45;;;2.08;;
5823;SDS011;2938;52.254;12.988;2023-04-01T02:23:55;5.35;;;2.58;;
5823;SDS011;2938;52.254;12.988;2023-04-01T02:26:22;10.02;;;2.25;;
5823;SDS011;2938;52.254;12.988;2023-04-01T02:28:48;9.25;;;2.35;;
5823;SDS011;2938;52.254;12.988;2023-04-01T02:31:14;3.85;;;1.92;;
5823;SDS011;2938;52.254;12.988;2023-04-01T02:33:39;6.82;;;1.90;;
5823;SDS011;2938;52.254;12.988;2023-04-01T02:36:05;5.00;;;2.53;;
5823;SDS011;2938;52.254;12.988;2023-04-01T02:38:31;6.38;;;2.45;;
5823;SDS011;2938;52.254;12.988;2023-04-01T02:41:00;7.13;;;2.92;;
5823;SDS011;2938;52.254;12.988;2023-04-01T02:43:26;4.00;;;2.20;;
5823;SDS011;2938;52.254;12.988;2023-04-01T02:45:52;10.45;;;2.90;;
5823;SDS011;2938;52.254;12.988;2023-04-01T02:48:17;6.22;;;2.00;;
5823;SDS011;2938;52.254;12.988;2023-04-01T02:50:43;5.97;;;2.35;;
5823;SDS011;2938;52.254;12.988;2023-04-01T02:53:08;4.85;;;1.85;;
5823;SDS011;2938;52.254;12.988;2023-04-01T02:55:33;7.53;;;2.42;;
5823;SDS011;2938;52.254;12.988;2023-04-01T02:57:59;5.07;;;2.28;;
5823;SDS011;2938;52.254;12.988;2023-04-01T03:00:24;6.55;;;2.92;;
5823;SDS011;2938;52.254;12.988;2023-04-01T03:02:52;7.80;;;3.53;;
5823;SDS011;2938;52.254;12.988;2023-04-01T03:05:18;8.20;;;2.28;;
5823;SDS011;2938;52.254;12.988;2023-04-01T03:07:43;7.82;;;2.55;;
5823;SDS011;2938;52.254;12.988;2023-04-01T03:10:09;12.45;;;2.63;;
5823;SDS011;2938;52.254;12.988;2023-04-01T03:12:34;12.15;;;2.60;;
5823;SDS011;2938;52.254;12.988;2023-04-01T03:15:00;6.13;;;2.50;;
5823;SDS011;2938;52.254;12.988;2023-04-01T03:17:25;10.95;;;2.78;;
5823;SDS011;2938;52.254;12.988;2023-04-01T03:19:50;4.68;;;2.55;;
5823;SDS011;2938;52.254;12.988;2023-04-01T03:22:16;5.38;;;2.25;;
5823;SDS011;2938;52.254;12.988;2023-04-01T03:24:46;6.80;;;2.50;;
5823;SDS011;2938;52.254;12.988;2023-04-01T03:27:12;6.07;;;2.30;;
5823;SDS011;2938;52.254;12.988;2023-04-01T03:29:37;12.55;;;2.92;;
5823;SDS011;2938;52.254;12.988;2023-04-01T03:32:02;5.18;;;3.03;;
5823;SDS011;2938;52.254;12.988;2023-04-01T03:34:27;12.18;;;3.25;;
5823;SDS011;2938;52.254;12.988;2023-04-01T03:36:53;7.28;;;2.58;;
5823;SDS011;2938;52.254;12.988;2023-04-01T03:39:18;3.90;;;2.38;;
5823;SDS011;2938;52.254;12.988;2023-04-01T03:41:44;9.10;;;1.80;;
5823;SDS011;2938;52.254;12.988;2023-04-01T03:44:10;8.00;;;2.20;;
5823;SDS011;2938;52.254;12.988;2023-04-01T03:46:35;6.13;;;2.45;;
5823;SDS011;2938;52.254;12.988;2023-04-01T03:49:01;18.35;;;3.10;;
5823;SDS011;2938;52.254;12.988;2023-04-01T03:51:26;10.05;;;2.63;;
5823;SDS011;2938;52.254;12.988;2023-04-01T03:53:52;4.68;;;2.08;;
5823;SDS011;2938;52.254;12.988;2023-04-01T03:56:17;6.05;;;1.95;;
5823;SDS011;2938;52.254;12.988;2023-04-01T03:58:42;10.30;;;2.72;;
5823;SDS011;2938;52.254;12.988;2023-04-01T04:01:17;11.68;;;2.55;;
5823;SDS011;2938;52.254;12.988;2023-04-01T04:03:45;8.98;;;3.38;;
5823;SDS011;2938;52.254;12.988;2023-04-01T04:06:11;14.60;;;3.85;;
5823;SDS011;2938;52.254;12.988;2023-04-01T04:08:38;4.43;;;2.70;;
5823;SDS011;2938;52.254;12.988;2023-04-01T04:11:03;3.80;;;2.50;;
5823;SDS011;2938;52.254;12.988;2023-04-01T04:13:28;9.52;;;2.70;;
5823;SDS011;2938;52.254;12.988;2023-04-01T04:15:54;5.95;;;2.33;;
5823;SDS011;2938;52.254;12.988;2023-04-01T04:18:19;6.93;;;2.63;;
5823;SDS011;2938;52.254;12.988;2023-04-01T04:20:47;9.15;;;2.58;;
5823;SDS011;2938;52.254;12.988;2023-04-01T04:23:15;9.77;;;3.22;;
5823;SDS011;2938;52.254;12.988;2023-04-01T04:25:40;6.65;;;3.05;;
5823;SDS011;2938;52.254;12.988;2023-04-01T04:28:06;3.97;;;2.38;;
5823;SDS011;2938;52.254;12.988;2023-04-01T04:30:31;7.43;;;2.92;;
5823;SDS011;2938;52.254;12.988;2023-04-01T04:32:56;8.30;;;3.17;;
5823;SDS011;2938;52.254;12.988;2023-04-01T04:35:21;5.03;;;2.55;;
5823;SDS011;2938;52.254;12.988;2023-04-01T04:37:47;3.97;;;2.88;;
5823;SDS011;2938;52.254;12.988;2023-04-01T04:40:12;8.15;;;2.95;;
5823;SDS011;2938;52.254;12.988;2023-04-01T04:42:37;9.75;;;2.92;;
5823;SDS011;2938;52.254;12.988;2023-04-01T04:45:03;10.38;;;4.10;;
5823;SDS011;2938;52.254;12.988;2023-04-01T04:47:28;5.97;;;2.58;;
5823;SDS011;2938;52.254;12.988;2023-04-01T04:49:54;8.00;;;3.45;;
5823;SDS011;2938;52.254;12.988;2023-04-01T04:52:19;10.90;;;3.58;;
5823;SDS011;2938;52.254;12.988;2023-04-01T04:54:44;9.52;;;2.97;;
5823;SDS011;2938;52.254;12.988;2023-04-01T04:57:10;5.63;;;3.53;;
5823;SDS011;2938;52.254;12.988;2023-04-01T04:59:42;12.05;;;4.40;;
5823;SDS011;2938;52.254;12.988;2023-04-01T05:02:07;12.52;;;3.25;;
5823;SDS011;2938;52.254;12.988;2023-04-01T05:04:36;3.65;;;2.35;;
5823;SDS011;2938;52.254;12.988;2023-04-01T05:07:01;11.43;;;3.20;;
5823;SDS011;2938;52.254;12.988;2023-04-01T05:09:26;7.18;;;3.50;;
5823;SDS011;2938;52.254;12.988;2023-04-01T05:11:52;5.70;;;3.13;;
5823;SDS011;2938;52.254;12.988;2023-04-01T05:14:17;10.13;;;2.90;;
5823;SDS011;2938;52.254;12.988;2023-04-01T05:16:42;10.65;;;2.85;;
5823;SDS011;2938;52.254;12.988;2023-04-01T05:19:08;8.95;;;3.55;;
5823;SDS011;2938;52.254;12.988;2023-04-01T05:21:33;9.27;;;3.47;;
5823;SDS011;2938;52.254;12.988;2023-04-01T05:23:58;6.03;;;3.45;;
5823;SDS011;2938;52.254;12.988;2023-04-01T05:26:24;8.95;;;3.58;;
5823;SDS011;2938;52.254;12.988;2023-04-01T05:28:49;8.38;;;3.80;;
5823;SDS011;2938;52.254;12.988;2023-04-01T05:31:14;9.68;;;4.53;;
5823;SDS011;2938;52.254;12.988;2023-04-01T05:33:40;8.77;;;2.70;;
5823;SDS011;2938;52.254;12.988;2023-04-01T05:36:12;7.47;;;2.72;;
5823;SDS011;2938;52.254;12.988;2023-04-01T05:38:39;8.68;;;2.75;;
5823;SDS011;2938;52.254;12.988;2023-04-01T05:41:04;5.05;;;2.65;;
5823;SDS011;2938;52.254;12.988;2023-04-01T05:43:30;5.97;;;2.67;;
5823;SDS011;2938;52.254;12.988;2023-04-01T05:45:55;8.98;;;3.20;;
5823;SDS011;2938;52.254;12.988;2023-04-01T05:48:21;18.40;;;3.60;;
5823;SDS011;2938;52.254;12.988;2023-04-01T05:50:46;12.30;;;4.68;;
5823;SDS011;2938;52.254;12.988;2023-04-01T05:53:11;11.02;;;3.28;;
5823;SDS011;2938;52.254;12.988;2023-04-01T05:55:37;6.22;;;2.63;;
5823;SDS011;2938;52.254;12.988;2023-04-01T05:58:02;4.72;;;2.33;;
5823;SDS011;2938;52.254;12.988;2023-04-01T06:00:27;4.75;;;2.40;;
5823;SDS011;2938;52.254;12.988;2023-04-01T06:02:53;7.72;;;2.47;;
5823;SDS011;2938;52.254;12.988;2023-04-01T06:05:22;10.05;;;2.38;;
5823;SDS011;2938;52.254;12.988;2023-04-01T06:07:50;6.05;;;2.38;;
5823;SDS011;2938;52.254;12.988;2023-04-01T06:10:17;8.57;;;2.75;;
5823;SDS011;2938;52.254;12.988;2023-04-01T06:12:45;3.67;;;2.35;;
5823;SDS011;2938;52.254;12.988;2023-04-01T06:17:56;3.63;;;2.25;;
5823;SDS011;2938;52.254;12.988;2023-04-01T06:20:32;7.82;;;2.47;;
5823;SDS011;2938;52.254;12.988;2023-04-01T06:31:26;8.15;;;2.80;;
5823;SDS011;2938;52.254;12.988;2023-04-01T06:34:06;6.63;;;2.72;;
5823;SDS011;2938;52.254;12.988;2023-04-01T06:44:59;7.47;;;3.17;;
5823;SDS011;2938;52.254;12.988;2023-04-01T06:47:36;7.32;;;2.90;;
5823;SDS011;2938;52.254;12.988;2023-04-01T06:50:36;7.32;;;2.58;;
5823;SDS011;2938;52.254;12.988;2023-04-01T06:53:21;9.45;;;3.40;;
5823;SDS011;2938;52.254;12.988;2023-04-01T06:56:05;9.05;;;2.80;;
5823;SDS011;2938;52.254;12.988;2023-04-01T06:58:41;10.82;;;3.88;;
5823;SDS011;2938;52.254;12.988;2023-04-01T07:01:12;7.28;;;3.53;;
5823;SDS011;2938;52.254;12.988;2023-04-01T07:03:40;12.40;;;3.92;;
5823;SDS011;2938;52.254;12.988;2023-04-01T07:06:13;7.10;;;3.83;;
5823;SDS011;2938;52.254;12.988;2023-04-01T07:08:41;7.70;;;2.72;;
5823;SDS011;2938;52.254;12.988;2023-04-01T07:11:09;4.97;;;2.72;;
5823;SDS011;2938;52.254;12.988;2023-04-01T07:13:48;7.38;;;3.05;;
5823;SDS011;2938;52.254;12.988;2023-04-01T07:16:30;8.73;;;2.50;;
5823;SDS011;2938;52.254;12.988;2023-04-01T07:19:18;12.32;;;3.30;;
5823;SDS011;2938;52.254;12.988;2023-04-01T07:21:48;7.03;;;3.10;;
5823;SDS011;2938;52.254;12.988;2023-04-01T07:24:17;9.13;;;2.65;;
5823;SDS011;2938;52.254;12.988;2023-04-01T07:26:47;7.75;;;2.13;;
5823;SDS011;2938;52.254;12.988;2023-04-01T07:29:14;6.07;;;2.08;;
5823;SDS011;2938;52.254;12.988;2023-04-01T07:31:44;5.20;;;2.03;;
5823;SDS011;2938;52.254;12.988;2023-04-01T07:34:17;6.68;;;2.03;;
5823;SDS011;2938;52.254;12.988;2023-04-01T07:39:15;5.22;;;2.10;;
5823;SDS011;2938;52.254;12.988;2023-04-01T07:44:39;4.47;;;2.83;;
5823;SDS011;2938;52.254;12.988;2023-04-01T07:47:15;4.45;;;2.35;;
5823;SDS011;2938;52.254;12.988;2023-04-01T07:52:52;5.90;;;2.25;;
5823;SDS011;2938;52.254;12.988;2023-04-01T07:58:16;6.03;;;2.05;;
5823;SDS011;2938;52.254;12.988;2023-04-01T08:00:57;3.38;;;2.38;;
5823;SDS011;2938;52.254;12.988;2023-04-01T08:03:47;6.13;;;1.88;;
5823;SDS011;2938;52.254;12.988;2023-04-01T08:06:32;8.80;;;3.05;;
5823;SDS011;2938;52.254;12.988;2023-04-01T08:09:01;4.45;;;2.03;;
5823;SDS011;2938;52.254;12.988;2023-04-01T08:15:04;3.65;;;1.73;;
5823;SDS011;2938;52.254;12.988;2023-04-01T08:17:56;3.88;;;2.28;;
5823;SDS011;2938;52.254;12.988;2023-04-01T08:20:46;7.47;;;2.10;;
5823;SDS011;2938;52.254;12.988;2023-04-01T08:23:14;4.65;;;1.85;;
5823;SDS011;2938;52.254;12.988;2023-04-01T08:25:48;3.92;;;2.03;;
5823;SDS011;2938;52.254;12.988;2023-04-01T08:30:52;10.35;;;1.90;;
5823;SDS011;2938;52.254;12.988;2023-04-01T08:33:24;4.15;;;2.38;;
5823;SDS011;2938;52.254;12.988;2023-04-01T08:35:53;5.20;;;2.17;;
5823;SDS011;2938;52.254;12.988;2023-04-01T08:38:42;4.82;;;2.30;;
5823;SDS011;2938;52.254;12.988;2023-04-01T08:41:13;8.98;;;1.60;;
5823;SDS011;2938;52.254;12.988;2023-04-01T08:43:55;8.25;;;2.45;;
5823;SDS011;2938;52.254;12.988;2023-04-01T08:49:44;4.63;;;2.28;;
5823;SDS011;2938;52.254;12.988;2023-04-01T08:52:25;8.05;;;2.28;;
5823;SDS011;2938;52.254;12.988;2023-04-01T08:57:52;6.25;;;2.50;;
5823;SDS011;2938;52.254;12.988;2023-04-01T09:00:33;4.70;;;1.65;;
5823;SDS011;2938;52.254;12.988;2023-04-01T09:03:10;5.72;;;2.42;;
5823;SDS011;2938;52.254;12.988;2023-04-01T09:14:30;6.88;;;2.25;;
5823;SDS011;2938;52.254;12.988;2023-04-01T09:26:11;6.68;;;1.77;;
5823;SDS011;2938;52.254;12.988;2023-04-01T09:29:09;3.70;;;1.20;;
5823;SDS011;2938;52.254;12.988;2023-04-01T09:40:47;8.75;;;1.55;;
5823;SDS011;2938;52.254;12.988;2023-04-01T10:12:06;2.25;;;1.25;;
5823;SDS011;2938;52.254;12.988;2023-04-01T10:17:39;3.88;;;1.48;;
5823;SDS011;2938;52.254;12.988;2023-04-01T10:28:45;7.07;;;1.08;;
5823;SDS011;2938;52.254;12.988;2023-04-01T10:34:45;1.10;;;1.00;;
5823;SDS011;2938;52.254;12.988;2023-04-01T10:37:56;1.85;;;1.25;;
5823;SDS011;2938;52.254;12.988;2023-04-01T10:43:33;6.60;;;1.45;;
5823;SDS011;2938;52.254;12.988;2023-04-01T10:54:29;8.10;;;1.30;;
5823;SDS011;2938;52.254;12.988;2023-04-01T11:02:55;3.80;;;1.38;;
5823;SDS011;2938;52.254;12.988;2023-04-01T11:14:52;3.10;;;1.13;;
5823;SDS011;2938;52.254;12.988;2023-04-01T11:20:56;4.30;;;1.25;;
5823;SDS011;2938;52.254;12.988;2023-04-01T11:35:18;3.63;;;2.90;;
5823;SDS011;2938;52.254;12.988;2023-04-01T11:51:50;6.70;;;4.40;;
5823;SDS011;2938;52.254;12.988;2023-04-01T11:57:02;6.47;;;5.00;;
5823;SDS011;2938;52.254;12.988;2023-04-01T11:59:41;8.35;;;5.35;;
5823;SDS011;2938;52.254;12.988;2023-04-01T12:10:24;9.48;;;6.40;;
5823;SDS011;2938;52.254;12.988;2023-04-01T12:13:02;10.38;;;6.97;;
5823;SDS011;2938;52.254;12.988;2023-04-01T12:18:26;9.47;;;8.07;;
5823;SDS011;2938;52.254;12.988;2023-04-01T12:21:13;10.02;;;7.57;;
5823;SDS011;2938;52.254;12.988;2023-04-01T12:35:24;10.43;;;7.90;;
5823;SDS011;2938;52.254;12.988;2023-04-01T12:38:03;8.95;;;7.97;;
5823;SDS011;2938;52.254;12.988;2023-04-01T12:40:56;9.32;;;8.35;;
5823;SDS011;2938;52.254;12.988;2023-04-01T12:49:09;8.93;;;7.80;;
5823;SDS011;2938;52.254;12.988;2023-04-01T12:51:46;7.68;;;6.30;;
5823;SDS011;2938;52.254;12.988;2023-04-01T13:00:30;8.00;;;5.45;;
5823;SDS011;2938;52.254;12.988;2023-04-01T13:08:59;6.00;;;5.38;;
5823;SDS011;2938;52.254;12.988;2023-04-01T13:16:53;6.13;;;5.13;;
5823;SDS011;2938;52.254;12.988;2023-04-01T13:19:25;6.30;;;5.07;;
5823;SDS011;2938;52.254;12.988;2023-04-01T13:22:07;5.35;;;4.75;;
5823;SDS011;2938;52.254;12.988;2023-04-01T13:24:48;6.25;;;4.15;;
5823;SDS011;2938;52.254;12.988;2023-04-01T13:30:19;4.55;;;4.13;;
5823;SDS011;2938;52.254;12.988;2023-04-01T13:35:58;4.95;;;3.40;;
5823;SDS011;2938;52.254;12.988;2023-04-01T13:41:27;3.67;;;3.35;;
5823;SDS011;2938;52.254;12.988;2023-04-01T13:44:00;5.78;;;4.03;;
5823;SDS011;2938;52.254;12.988;2023-04-01T13:50:04;4.03;;;3.55;;
5823;SDS011;2938;52.254;12.988;2023-04-01T13:55:18;6.03;;;4.07;;
5823;SDS011;2938;52.254;12.988;2023-04-01T13:57:49;4.30;;;3.90;;
5823;SDS011;2938;52.254;12.988;2023-04-01T14:00:32;5.45;;;4.28;;
5823;SDS011;2938;52.254;12.988;2023-04-01T14:05:44;7.05;;;4.93;;
5823;SDS011;2938;52.254;12.988;2023-04-01T14:08:30;6.60;;;4.80;;
5823;SDS011;2938;52.254;12.988;2023-04-01T14:11:02;4.35;;;3.67;;
5823;SDS011;2938;52.254;12.988;2023-04-01T14:13:39;7.15;;;5.63;;
5823;SDS011;2938;52.254;12.988;2023-04-01T14:18:47;6.18;;;5.53;;
5823;SDS011;2938;52.254;12.988;2023-04-01T14:21:43;5.88;;;5.25;;
5823;SDS011;2938;52.254;12.988;2023-04-01T14:24:24;7.10;;;5.93;;
5823;SDS011;2938;52.254;12.988;2023-04-01T14:27:09;7.30;;;6.38;;
5823;SDS011;2938;52.254;12.988;2023-04-01T14:32:29;9.30;;;7.68;;
5823;SDS011;2938;52.254;12.988;2023-04-01T14:35:09;7.90;;;6.57;;
5823;SDS011;2938;52.254;12.988;2023-04-01T14:40:45;6.68;;;5.00;;
5823;SDS011;2938;52.254;12.988;2023-04-01T14:43:26;7.43;;;6.53;;
5823;SDS011;2938;52.254;12.988;2023-04-01T14:48:38;7.90;;;6.57;;
5823;SDS011;2938;52.254;12.988;2023-04-01T14:53:43;8.57;;;7.63;;
5823;SDS011;2938;52.254;12.988;2023-04-01T14:56:26;9.45;;;8.48;;
5823;SDS011;2938;52.254;12.988;2023-04-01T15:01:50;8.32;;;7.50;;
5823;SDS011;2938;52.254;12.988;2023-04-01T15:04:37;9.43;;;6.97;;
5823;SDS011;2938;52.254;12.988;2023-04-01T15:07:18;7.18;;;6.47;;
5823;SDS011;2938;52.254;12.988;2023-04-01T15:21:44;10.30;;;7.75;;
5823;SDS011;2938;52.254;12.988;2023-04-01T15:25:02;8.43;;;7.55;;
5823;SDS011;2938;52.254;12.988;2023-04-01T15:33:39;8.73;;;7.85;;
5823;SDS011;2938;52.254;12.988;2023-04-01T15:36:28;9.60;;;8.43;;
5823;SDS011;2938;52.254;12.988;2023-04-01T15:41:37;11.23;;;8.75;;
5823;SDS011;2938;52.254;12.988;2023-04-01T15:44:02;10.30;;;8.02;;
5823;SDS011;2938;52.254;12.988;2023-04-01T15:46:47;13.25;;;9.52;;
5823;SDS011;2938;52.254;12.988;2023-04-01T15:49:22;10.63;;;7.78;;
5823;SDS011;2938;52.254;12.988;2023-04-01T15:57:21;13.55;;;10.82;;
5823;SDS011;2938;52.254;12.988;2023-04-01T15:59:54;14.55;;;12.13;;
5823;SDS011;2938;52.254;12.988;2023-04-01T16:02:36;15.50;;;12.55;;
5823;SDS011;2938;52.254;12.988;2023-04-01T16:08:17;12.18;;;10.05;;
5823;SDS011;2938;52.254;12.988;2023-04-01T16:13:38;12.90;;;11.15;;
5823;SDS011;2938;52.254;12.988;2023-04-01T16:19:03;14.52;;;11.77;;
5823;SDS011;2938;52.254;12.988;2023-04-01T16:27:13;14.95;;;13.38;;
5823;SDS011;2938;52.254;12.988;2023-04-01T16:29:48;14.75;;;12.32;;
5823;SDS011;2938;52.254;12.988;2023-04-01T16:38:08;11.50;;;9.40;;
5823;SDS011;2938;52.254;12.988;2023-04-01T16:40:41;12.52;;;10.23;;
5823;SDS011;2938;52.254;12.988;2023-04-01T16:48:45;15.57;;;12.45;;
5823;SDS011;2938;52.254;12.988;2023-04-01T16:51:17;15.60;;;12.98;;
5823;SDS011;2938;52.254;12.988;2023-04-01T16:53:48;16.55;;;13.63;;
5823;SDS011;2938;52.254;12.988;2023-04-01T16:59:21;18.48;;;12.55;;
5823;SDS011;2938;52.254;12.988;2023-04-01T17:02:02;16.60;;;11.98;;
5823;SDS011;2938;52.254;12.988;2023-04-01T17:07:17;13.00;;;11.02;;
5823;SDS011;2938;52.254;12.988;2023-04-01T17:12:54;20.10;;;12.90;;
5823;SDS011;2938;52.254;12.988;2023-04-01T17:15:38;24.77;;;11.50;;
5823;SDS011;2938;52.254;12.988;2023-04-01T17:18:10;14.95;;;12.30;;
5823;SDS011;2938;52.254;12.988;2023-04-01T17:20:43;16.08;;;11.57;;
5823;SDS011;2938;52.254;12.988;2023-04-01T17:25:55;15.13;;;11.52;;
5823;SDS011;2938;52.254;12.988;2023-04-01T17:28:41;12.48;;;10.50;;
5823;SDS011;2938;52.254;12.988;2023-04-01T17:33:51;14.30;;;12.75;;
5823;SDS011;2938;52.254;12.988;2023-04-01T17:41:47;16.13;;;11.57;;
5823;SDS011;2938;52.254;12.988;2023-04-01T17:44:49;14.52;;;11.00;;
5823;SDS011;2938;52.254;12.988;2023-04-01T17:47:39;15.82;;;13.32;;
5823;SDS011;2938;52.254;12.988;2023-04-01T17:53:20;15.57;;;11.60;;
5823;SDS011;2938;52.254;12.988;2023-04-01T17:56:08;13.63;;;12.13;;
5823;SDS011;2938;52.254;12.988;2023-04-01T17:58:59;14.57;;;11.88;;
5823;SDS011;2938;52.254;12.988;2023-04-01T18:01:49;14.00;;;12.50;;
5823;SDS011;2938;52.254;12.988;2023-04-01T18:13:50;12.02;;;10.18;;
5823;SDS011;2938;52.254;12.988;2023-04-01T18:16:20;11.68;;;10.48;;
5823;SDS011;2938;52.254;12.988;2023-04-01T18:21:50;20.95;;;14.65;;
5823;SDS011;2938;52.254;12.988;2023-04-01T18:24:35;14.05;;;10.02;;
5823;SDS011;2938;52.254;12.988;2023-04-01T18:27:18;15.77;;;12.88;;
5823;SDS011;2938;52.254;12.988;2023-04-01T18:30:22;14.35;;;12.20;;
5823;SDS011;2938;52.254;12.988;2023-04-01T18:35:47;14.90;;;11.68;;
5823;SDS011;2938;52.254;12.988;2023-04-01T18:38:27;14.98;;;12.45;;
5823;SDS011;2938;52.254;12.988;2023-04-01T18:41:05;21.00;;;13.88;;
5823;SDS011;2938;52.254;12.988;2023-04-01T18:46:21;16.90;;;13.10;;
5823;SDS011;2938;52.254;12.988;2023-04-01T18:48:51;15.45;;;11.45;;
5823;SDS011;2938;52.254;12.988;2023-04-01T18:51:25;18.55;;;14.55;;
5823;SDS011;2938;52.254;12.988;2023-04-01T18:53:59;15.27;;;12.95;;
5823;SDS011;2938;52.254;12.988;2023-04-01T18:56:35;15.73;;;10.85;;
5823;SDS011;2938;52.254;12.988;2023-04-01T18:59:06;15.02;;;13.15;;
5823;SDS011;2938;52.254;12.988;2023-04-01T19:01:43;20.20;;;13.40;;
5823;SDS011;2938;52.254;12.988;2023-04-01T19:04:22;15.52;;;11.48;;
5823;SDS011;2938;52.254;12.988;2023-04-01T19:06:58;12.05;;;9.82;;
5823;SDS011;2938;52.254;12.988;2023-04-01T19:09:32;13.75;;;11.27;;
5823;SDS011;2938;52.254;12.988;2023-04-01T19:12:18;15.77;;;12.07;;
5823;SDS011;2938;52.254;12.988;2023-04-01T19:14:51;14.40;;;12.05;;
5823;SDS011;2938;52.254;12.988;2023-04-01T19:17:25;18.63;;;12.30;;
5823;SDS011;2938;52.254;12.988;2023-04-01T19:19:56;15.90;;;13.02;;
5823;SDS011;2938;52.254;12.988;2023-04-01T19:28:07;10.73;;;9.65;;
5823;SDS011;2938;52.254;12.988;2023-04-01T19:33:09;10.90;;;9.47;;
5823;SDS011;2938;52.254;12.988;2023-04-01T19:35:49;14.57;;;10.55;;
5823;SDS011;2938;52.254;12.988;2023-04-01T19:44:24;10.07;;;9.02;;
5823;SDS011;2938;52.254;12.988;2023-04-01T19:47:02;11.40;;;9.07;;
5823;SDS011;2938;52.254;12.988;2023-04-01T19:52:53;9.85;;;8.15;;
5823;SDS011;2938;52.254;12.988;2023-04-01T19:55:36;12.70;;;8.13;;
5823;SDS011;2938;52.254;12.988;2023-04-01T19:58:06;10.73;;;7.32;;
5823;SDS011;2938;52.254;12.988;2023-04-01T20:00:42;13.95;;;7.97;;
5823;SDS011;2938;52.254;12.988;2023-04-01T20:06:05;10.18;;;6.32;;
5823;SDS011;2938;52.254;12.988;2023-04-01T20:08:41;9.05;;;7.32;;
5823;SDS011;2938;52.254;12.988;2023-04-01T20:11:14;11.52;;;7.95;;
5823;SDS011;2938;52.254;12.988;2023-04-01T20:16:21;9.38;;;7.28;;
5823;SDS011;2938;52.254;12.988;2023-04-01T20:18:54;11.35;;;7.63;;
5823;SDS011;2938;52.254;12.988;2023-04-01T20:24:23;12.80;;;9.27;;
5823;SDS011;2938;52.254;12.988;2023-04-01T20:27:37;10.10;;;8.02;;
5823;SDS011;2938;52.254;12.988;2023-04-01T20:32:41;19.63;;;9.13;;
5823;SDS011;2938;52.254;12.988;2023-04-01T20:35:14;10.85;;;9.52;;
5823;SDS011;2938;52.254;12.988;2023-04-01T20:37:49;9.55;;;7.40;;
5823;SDS011;2938;52.254;12.988;2023-04-01T20:40:40;13.68;;;9.13;;
5823;SDS011;2938;52.254;12.988;2023-04-01T20:43:24;21.02;;;10.07;;
5823;SDS011;2938;52.254;12.988;2023-04-01T20:46:19;15.68;;;10.32;;
5823;SDS011;2938;52.254;12.988;2023-04-01T20:48:58;14.45;;;9.50;;
5823;SDS011;2938;52.254;12.988;2023-04-01T20:51:33;12.55;;;8.52;;
5823;SDS011;2938;52.254;12.988;2023-04-01T20:59:35;10.95;;;7.82;;
5823;SDS011;2938;52.254;12.988;2023-04-01T21:02:36;10.65;;;8.35;;
5823;SDS011;2938;52.254;12.988;2023-04-01T21:05:21;7.28;;;5.75;;
5823;SDS011;2938;52.254;12.988;2023-04-01T21:08:01;18.75;;;10.38;;
5823;SDS011;2938;52.254;12.988;2023-04-01T21:18:43;15.20;;;9.85;;
5823;SDS011;2938;52.254;12.988;2023-04-01T21:24:29;12.82;;;8.50;;
5823;SDS011;2938;52.254;12.988;2023-04-01T21:30:32;14.57;;;7.68;;
5823;SDS011;2938;52.254;12.988;2023-04-01T21:33:02;9.17;;;7.30;;
5823;SDS011;2938;52.254;12.988;2023-04-01T21:38:42;12.70;;;9.65;;
5823;SDS011;2938;52.254;12.988;2023-04-01T22:06:22;11.85;;;7.93;;
5823;SDS011;2938;52.254;12.988;2023-04-01T22:08:54;21.55;;;10.38;;
5823;SDS011;2938;52.254;12.988;2023-04-01T22:11:28;23.10;;;9.35;;
5823;SDS011;2938;52.254;12.988;2023-04-01T22:15:01;14.57;;;9.23;;
5823;SDS011;2938;52.254;12.988;2023-04-01T22:17:00;9.67;;;7.20;;
5823;SDS011;2938;52.254;12.988;2023-04-01T22:19:36;12.32;;;8.65;;
5823;SDS011;2938;52.254;12.988;2023-04-01T22:22:21;14.68;;;8.55;;
5823;SDS011;2938;52.254;12.988;2023-04-01T22:30:19;10.57;;;7.63;;
5823;SDS011;2938;52.254;12.988;2023-04-01T22:32:54;9.88;;;7.22;;
5823;SDS011;2938;52.254;12.988;2023-04-01T22:35:48;12.23;;;8.13;;
5823;SDS011;2938;52.254;12.988;2023-04-01T22:38:27;11.50;;;6.78;;
5823;SDS011;2938;52.254;12.988;2023-04-01T22:41:28;11.27;;;6.65;;
5823;SDS011;2938;52.254;12.988;2023-04-01T22:44:03;12.52;;;7.65;;
5823;SDS011;2938;52.254;12.988;2023-04-01T22:49:25;11.18;;;6.97;;
5823;SDS011;2938;52.254;12.988;2023-04-01T22:52:05;16.02;;;7.82;;
5823;SDS011;2938;52.254;12.988;2023-04-01T22:54:40;14.18;;;8.48;;
5823;SDS011;2938;52.254;12.988;2023-04-01T22:57:08;10.63;;;6.28;;
5823;SDS011;2938;52.254;12.988;2023-04-01T22:59:40;12.80;;;7.22;;
5823;SDS011;2938;52.254;12.988;2023-04-01T23:02:24;9.82;;;6.78;;
5823;SDS011;2938;52.254;12.988;2023-04-01T23:04:55;9.95;;;7.43;;